Terminal Aerodrome Forecast
Issued by NWS

Current Version | Previous Version | Text Only | Print | Product List | Glossary Off
Versions: 1 2 3 4 5 6 7 8 9 10 11 12 13 14 15 16 17 18 19 20 21 22 23 24

000
FTUS41 KILN 310500
TAFLCK
TAF
KLCK 310532Z 3106/0106 21006KT P6SM -SHRA SCT050 OVC080
     FM310700 20005KT 5SM BR VCSH SCT050 BKN070
     FM311100 19006KT 4SM -SHRA BR OVC012
     FM311500 20009KT 5SM BR OVC015
     FM311800 20010KT P6SM VCTS BKN028CB
     FM312300 19006KT P6SM BKN035=

USA.gov is the U.S. government's official web portal to all federal, state and local government web resources and services.